createdAt,value
2022-12-19T00:00:37.294Z,19.73
2022-12-19T00:03:05.644Z,20.15
2022-12-19T00:05:37.615Z,23.48
2022-12-19T00:08:17.190Z,21.15
2022-12-19T00:10:55.877Z,19.05
2022-12-19T00:13:23.721Z,20.67
2022-12-19T00:15:51.502Z,20.90
2022-12-19T00:18:21.561Z,24.05
2022-12-19T00:20:56.524Z,21.50
2022-12-19T00:23:24.457Z,22.30
2022-12-19T00:25:53.845Z,21.77
2022-12-19T00:28:22.174Z,21.23
2022-12-19T00:30:50.003Z,22.80
2022-12-19T00:33:24.264Z,24.30
2022-12-19T00:35:52.074Z,19.10
2022-12-19T00:38:19.989Z,17.88
2022-12-19T00:40:47.761Z,23.50
2022-12-19T00:43:16.917Z,18.58
2022-12-19T00:45:45.106Z,22.48
2022-12-19T00:48:15.616Z,20.35
2022-12-19T00:50:47.153Z,19.60
2022-12-19T00:53:16.964Z,23.52
2022-12-19T00:55:44.641Z,24.15
2022-12-19T00:58:12.383Z,21.05
2022-12-19T01:00:42.349Z,22.65
2022-12-19T01:03:11.159Z,19.67
2022-12-19T01:05:38.920Z,21.70
2022-12-19T01:08:09.847Z,21.92
2022-12-19T01:10:38.298Z,19.65
2022-12-19T01:13:06.983Z,20.92
2022-12-19T01:15:35.497Z,24.20
2022-12-19T01:18:07.165Z,21.10
2022-12-19T01:20:35.032Z,21.38
2022-12-19T01:23:07.875Z,20.15
2022-12-19T01:25:37.938Z,21.17
2022-12-19T01:28:11.250Z,21.35
2022-12-19T01:30:41.685Z,18.85
2022-12-19T01:33:12.955Z,18.88
2022-12-19T01:35:41.318Z,18.15
2022-12-19T01:38:14.789Z,23.02
2022-12-19T01:40:49.630Z,18.45
2022-12-19T01:43:20.836Z,21.63
2022-12-19T01:45:55.668Z,19.83
2022-12-19T01:48:31.135Z,22.10
2022-12-19T01:51:02.824Z,20.02
2022-12-19T01:53:48.231Z,20.65
2022-12-19T01:56:18.209Z,18.23
2022-12-19T01:58:47.561Z,21.02
2022-12-19T02:01:17.323Z,19.38
2022-12-19T02:03:48.207Z,19.75
2022-12-19T02:06:16.051Z,21.50
2022-12-19T02:08:47.302Z,17.10
2022-12-19T02:11:18.462Z,20.80
2022-12-19T02:13:47.075Z,17.80
2022-12-19T02:16:27.517Z,20.58
2022-12-19T02:19:10.379Z,19.20
2022-12-19T02:21:54.778Z,20.15
2022-12-19T02:25:01.974Z,15.68
2022-12-19T02:27:54.968Z,20.92
2022-12-19T02:30:46.098Z,19.10
2022-12-19T02:33:19.237Z,20.05
2022-12-19T02:35:53.245Z,17.83
2022-12-19T02:38:28.364Z,19.83
2022-12-19T02:40:59.883Z,20.45
2022-12-19T02:43:33.251Z,22.63
2022-12-19T02:46:06.353Z,21.50
2022-12-19T02:48:36.059Z,18.85
2022-12-19T02:51:05.869Z,19.80
2022-12-19T02:53:34.425Z,21.15
2022-12-19T02:56:25.542Z,22.23
2022-12-19T02:59:09.964Z,20.23
2022-12-19T03:01:45.691Z,18.95
2022-12-19T03:04:22.013Z,20.40
2022-12-19T03:06:54.913Z,21.67
2022-12-19T03:09:32.902Z,18.58
2022-12-19T03:12:06.607Z,20.02
2022-12-19T03:14:37.087Z,21.38
2022-12-19T03:17:08.415Z,19.42
2022-12-19T03:19:39.281Z,17.92
2022-12-19T03:22:08.698Z,18.15
2022-12-19T03:24:36.868Z,19.20
2022-12-19T03:27:09.895Z,22.33
2022-12-19T03:29:41.642Z,16.75
2022-12-19T03:32:15.387Z,21.73
2022-12-19T03:34:47.362Z,17.15
2022-12-19T03:37:17.806Z,20.40
2022-12-19T03:39:49.904Z,24.10
2022-12-19T03:42:36.799Z,17.38
2022-12-19T03:45:07.234Z,19.33
2022-12-19T03:47:40.024Z,20.90
2022-12-19T03:50:09.477Z,21.23
2022-12-19T03:52:46.029Z,22.75
2022-12-19T03:55:17.669Z,21.70
2022-12-19T03:57:52.229Z,22.70
2022-12-19T04:00:20.791Z,17.52
2022-12-19T04:02:53.652Z,20.15
2022-12-19T04:05:24.031Z,21.65
2022-12-19T04:07:54.222Z,21.48
2022-12-19T04:10:26.184Z,23.98
2022-12-19T04:12:59.150Z,20.77
2022-12-19T04:15:34.666Z,21.10
2022-12-19T04:18:07.478Z,21.30
2022-12-19T04:20:38.423Z,22.45
2022-12-19T04:23:12.449Z,16.40
2022-12-19T04:25:46.495Z,20.50
2022-12-19T04:28:19.779Z,23.30
2022-12-19T04:30:49.305Z,18.63
2022-12-19T04:33:18.458Z,18.42
2022-12-19T04:35:46.277Z,21.20
2022-12-19T04:38:14.189Z,20.17
2022-12-19T04:40:42.015Z,18.08
2022-12-19T04:43:10.249Z,23.33
2022-12-19T04:45:38.211Z,21.08
2022-12-19T04:48:08.138Z,20.42
2022-12-19T04:50:38.349Z,16.45
2022-12-19T04:53:09.373Z,18.45
2022-12-19T04:55:37.366Z,19.60
2022-12-19T04:58:06.142Z,18.77
2022-12-19T05:00:34.120Z,21.63
2022-12-19T05:03:02.109Z,19.48
2022-12-19T05:05:30.004Z,15.82
2022-12-19T05:08:00.682Z,16.98
2022-12-19T05:10:28.565Z,24.13
2022-12-19T05:12:58.161Z,16.65
2022-12-19T05:15:29.030Z,20.02
2022-12-19T05:17:57.989Z,21.73
2022-12-19T05:20:25.885Z,21.95
2022-12-19T05:22:53.623Z,17.10
2022-12-19T05:25:26.186Z,17.25
2022-12-19T05:27:55.429Z,19.92
2022-12-19T05:30:25.658Z,22.30
2022-12-19T05:32:53.683Z,17.50
2022-12-19T05:35:21.754Z,21.92
2022-12-19T05:37:49.934Z,20.63
2022-12-19T05:40:18.027Z,19.70
2022-12-19T05:42:48.428Z,19.20
2022-12-19T05:45:17.930Z,19.58
2022-12-19T05:47:46.779Z,18.60
2022-12-19T05:50:23.395Z,17.42
2022-12-19T05:52:58.246Z,18.00
2022-12-19T05:55:31.873Z,17.40
2022-12-19T05:58:01.367Z,16.40
2022-12-19T06:00:29.473Z,17.67
2022-12-19T06:02:58.987Z,19.90
2022-12-19T06:05:27.025Z,18.80
2022-12-19T06:07:56.575Z,17.20
2022-12-19T06:10:24.402Z,18.98
2022-12-19T06:12:54.547Z,22.00
2022-12-19T06:15:23.747Z,20.15
2022-12-19T06:17:55.205Z,19.17
2022-12-19T06:20:27.992Z,18.42
2022-12-19T06:23:00.380Z,17.70
2022-12-19T06:25:28.504Z,17.63
2022-12-19T06:28:01.311Z,19.50
2022-12-19T06:30:35.522Z,22.80
2022-12-19T06:33:08.943Z,19.80
2022-12-19T06:35:37.387Z,19.73
2022-12-19T06:38:05.663Z,20.25
2022-12-19T06:40:50.986Z,17.90
2022-12-19T06:43:18.838Z,18.02
2022-12-19T06:45:48.041Z,16.65
2022-12-19T06:48:15.942Z,25.63
2022-12-19T06:50:46.026Z,16.35
2022-12-19T06:53:14.029Z,20.25
2022-12-19T06:55:50.110Z,20.77
2022-12-19T06:58:24.113Z,19.13
2022-12-19T07:00:57.612Z,21.30
2022-12-19T07:03:29.934Z,16.70
2022-12-19T07:05:57.852Z,15.43
2022-12-19T07:08:29.249Z,18.45
2022-12-19T07:11:02.422Z,18.55
2022-12-19T07:13:30.635Z,19.17
2022-12-19T07:16:02.569Z,19.23
2022-12-19T07:18:38.057Z,17.55
2022-12-19T07:21:07.585Z,18.17
2022-12-19T07:23:36.250Z,21.20
2022-12-19T07:26:04.754Z,20.15
2022-12-19T07:28:34.630Z,18.67
2022-12-19T07:31:05.545Z,16.70
2022-12-19T07:33:33.751Z,16.35
2022-12-19T07:36:01.647Z,15.88
2022-12-19T07:38:29.712Z,21.50
2022-12-19T07:41:01.298Z,19.60
2022-12-19T07:43:29.448Z,23.92
2022-12-19T07:45:57.888Z,17.25
2022-12-19T07:48:31.907Z,20.25
2022-12-19T07:50:59.845Z,22.40
2022-12-19T07:53:30.956Z,21.48
2022-12-19T07:56:02.435Z,19.60
2022-12-19T07:58:32.545Z,22.67
2022-12-19T08:01:06.879Z,19.95
2022-12-19T08:03:48.708Z,14.57
2022-12-19T08:06:21.755Z,18.85
2022-12-19T08:08:49.674Z,19.80
2022-12-19T08:11:30.260Z,19.85
2022-12-19T08:14:13.343Z,19.50
2022-12-19T08:17:19.263Z,20.08
2022-12-19T08:19:58.309Z,19.00
2022-12-19T08:22:30.089Z,18.08
2022-12-19T08:25:02.698Z,20.40
2022-12-19T08:27:36.818Z,20.08
2022-12-19T08:30:42.489Z,16.48
2022-12-19T08:33:27.538Z,18.35
2022-12-19T08:36:00.300Z,22.77
2022-12-19T08:38:41.739Z,19.88
2022-12-19T08:41:33.112Z,19.98
2022-12-19T08:44:03.369Z,23.15
2022-12-19T08:46:31.592Z,25.70
2022-12-19T08:49:00.094Z,22.63
2022-12-19T08:51:29.298Z,23.55
2022-12-19T08:53:57.863Z,20.05
2022-12-19T08:56:25.791Z,22.67
2022-12-19T08:58:53.673Z,23.63
2022-12-19T09:01:24.059Z,24.67
2022-12-19T09:04:39.881Z,21.48
2022-12-19T09:06:43.156Z,22.17
2022-12-19T09:09:12.804Z,22.50
2022-12-19T09:11:48.031Z,21.55
2022-12-19T09:14:21.239Z,30.15
2022-12-19T09:16:49.709Z,22.13
2022-12-19T09:19:19.492Z,25.83
2022-12-19T09:21:51.751Z,24.65
2022-12-19T09:24:20.386Z,23.58
2022-12-19T09:26:48.245Z,22.35
2022-12-19T09:29:20.958Z,26.63
2022-12-19T09:31:56.944Z,28.50
2022-12-19T09:34:33.240Z,26.13
2022-12-19T09:37:07.594Z,28.30
2022-12-19T09:39:36.176Z,24.90
2022-12-19T09:42:17.534Z,19.05
2022-12-19T09:45:05.605Z,28.48
2022-12-19T09:47:36.375Z,25.20
2022-12-19T09:50:12.149Z,25.15
2022-12-19T09:52:46.907Z,24.38
2022-12-19T09:55:21.175Z,22.00
2022-12-19T09:57:56.757Z,20.23
2022-12-19T10:00:25.610Z,23.42
2022-12-19T10:03:00.681Z,23.17
2022-12-19T10:06:08.652Z,19.60
2022-12-19T10:08:31.645Z,25.88
2022-12-19T10:12:38.035Z,21.73
2022-12-19T10:14:11.078Z,21.33
2022-12-19T10:17:22.182Z,24.13
2022-12-19T10:19:48.071Z,25.33
2022-12-19T10:22:25.588Z,23.42
2022-12-19T10:25:12.029Z,22.67
2022-12-19T10:27:59.203Z,19.88
2022-12-19T10:30:31.831Z,24.90
2022-12-19T10:33:11.193Z,22.27
2022-12-19T10:35:49.424Z,22.75
2022-12-19T10:38:25.172Z,22.35
2022-12-19T10:41:05.319Z,21.98
2022-12-19T10:43:44.903Z,21.10
2022-12-19T10:46:18.425Z,20.33
2022-12-19T10:48:46.784Z,23.63
2022-12-19T10:51:20.125Z,20.65
2022-12-19T10:53:55.085Z,21.05
2022-12-19T10:56:28.268Z,21.65
2022-12-19T10:59:02.331Z,22.83
2022-12-19T11:01:34.439Z,21.27
2022-12-19T11:04:16.339Z,19.27
2022-12-19T11:06:52.184Z,23.33
2022-12-19T11:09:27.811Z,21.80
2022-12-19T11:15:22.516Z,21.52
2022-12-19T11:20:28.166Z,21.25
2022-12-19T11:28:40.072Z,19.65
2022-12-19T11:29:46.487Z,21.50
2022-12-19T11:30:08.859Z,22.88
2022-12-19T11:30:47.107Z,19.70
2022-12-19T11:32:41.873Z,24.25
2022-12-19T11:35:19.951Z,23.48
2022-12-19T11:37:56.147Z,22.08
2022-12-19T11:40:33.275Z,23.70
2022-12-19T11:43:42.432Z,21.00
2022-12-19T11:46:01.838Z,24.77
2022-12-19T11:48:38.392Z,25.15
2022-12-19T11:51:14.997Z,22.48
2022-12-19T11:53:53.686Z,19.13
2022-12-19T11:56:24.670Z,24.45
2022-12-19T11:58:55.775Z,22.45
2022-12-19T12:01:41.387Z,20.30
2022-12-19T12:04:39.598Z,19.83
2022-12-19T12:07:25.528Z,18.58
2022-12-19T12:11:50.900Z,24.35
2022-12-19T12:19:55.072Z,21.13
2022-12-19T12:24:56.218Z,21.45
2022-12-19T12:31:14.157Z,19.95
2022-12-19T12:31:17.244Z,20.67
2022-12-19T12:31:41.319Z,21.08
2022-12-19T12:31:42.236Z,20.38
2022-12-19T12:31:51.536Z,21.13
2022-12-19T12:35:51.821Z,18.42
2022-12-19T12:39:44.293Z,17.45
2022-12-19T12:42:25.249Z,18.10
2022-12-19T12:44:58.284Z,16.65
2022-12-19T12:47:28.991Z,19.17
2022-12-19T12:49:59.816Z,19.70
2022-12-19T12:52:36.777Z,16.95
2022-12-19T12:55:06.249Z,15.48
2022-12-19T12:57:37.540Z,15.70
2022-12-19T13:00:23.372Z,14.73
2022-12-19T13:02:58.176Z,16.25
2022-12-19T13:05:38.825Z,15.13
2022-12-19T13:08:29.116Z,16.30
2022-12-19T13:10:59.052Z,15.18
2022-12-19T13:14:02.613Z,16.40
2022-12-19T13:20:00.148Z,17.67
2022-12-19T13:22:42.933Z,16.55
2022-12-19T13:25:53.286Z,17.80
2022-12-19T13:28:40.845Z,17.08
2022-12-19T13:31:23.250Z,19.30
2022-12-19T13:34:17.235Z,21.92
2022-12-19T13:39:56.404Z,15.68
2022-12-19T13:40:08.886Z,15.45
2022-12-19T13:43:10.360Z,21.27
2022-12-19T13:45:48.943Z,18.67
2022-12-19T13:48:21.767Z,18.35
2022-12-19T13:50:50.327Z,21.45
2022-12-19T13:53:19.130Z,21.05
2022-12-19T13:55:50.447Z,25.65
2022-12-19T13:58:28.414Z,24.75
2022-12-19T14:01:02.247Z,18.95
2022-12-19T14:03:38.548Z,22.65
2022-12-19T14:06:17.778Z,24.98
2022-12-19T14:08:48.076Z,21.67
2022-12-19T14:13:46.678Z,25.92
2022-12-19T14:15:02.178Z,21.58
2022-12-19T14:17:40.167Z,20.70
2022-12-19T14:22:02.495Z,24.02
2022-12-19T14:23:08.862Z,26.50
2022-12-19T14:28:14.577Z,23.95
2022-12-19T14:28:37.986Z,23.08
2022-12-19T14:31:12.545Z,25.30
2022-12-19T14:34:11.102Z,23.20
2022-12-19T14:36:35.018Z,23.52
2022-12-19T14:39:22.152Z,27.98
2022-12-19T14:42:11.547Z,26.65
2022-12-19T14:52:51.449Z,28.45
2022-12-19T14:54:09.467Z,23.85
2022-12-19T14:54:26.484Z,24.85
2022-12-19T14:54:48.410Z,24.60
2022-12-19T14:56:53.691Z,25.15
2022-12-19T14:59:23.867Z,24.95
2022-12-19T15:01:54.637Z,24.42
2022-12-19T15:04:48.887Z,25.85
2022-12-19T15:07:18.849Z,28.55
2022-12-19T15:11:06.813Z,25.00
2022-12-19T15:14:47.271Z,25.08
2022-12-19T15:16:00.693Z,24.23
2022-12-19T15:18:39.690Z,27.38
2022-12-19T15:21:12.560Z,25.92
2022-12-19T15:23:44.612Z,27.42
2022-12-19T15:26:15.527Z,26.88
2022-12-19T15:28:46.973Z,27.35
2022-12-19T15:31:26.910Z,26.27
2022-12-19T15:34:33.049Z,24.63
2022-12-19T15:37:38.982Z,26.58
2022-12-19T15:41:34.596Z,24.83
2022-12-19T15:44:16.505Z,24.23
2022-12-19T15:46:48.921Z,23.88
2022-12-19T15:49:18.118Z,22.73
2022-12-19T15:51:46.475Z,26.35
2022-12-19T15:54:47.108Z,27.85
2022-12-19T15:57:02.667Z,24.58
2022-12-19T15:59:37.751Z,29.63
2022-12-19T16:02:17.088Z,28.27
2022-12-19T16:04:48.752Z,21.17
2022-12-19T16:07:18.628Z,26.92
2022-12-19T16:09:47.178Z,25.85
2022-12-19T16:12:19.307Z,23.13
2022-12-19T16:14:50.409Z,24.13
2022-12-19T16:17:22.400Z,24.60
2022-12-19T16:19:51.594Z,26.10
2022-12-19T16:22:22.493Z,26.25
2022-12-19T16:24:51.296Z,26.92
2022-12-19T16:27:25.414Z,25.73
2022-12-19T16:29:55.130Z,26.90
2022-12-19T16:32:24.588Z,27.42
2022-12-19T16:34:54.698Z,24.70
2022-12-19T16:37:27.196Z,29.02
2022-12-19T16:39:58.253Z,25.58
2022-12-19T16:42:26.308Z,27.48
2022-12-19T16:44:55.546Z,24.05
2022-12-19T16:47:23.515Z,25.85
2022-12-19T16:49:51.644Z,26.45
2022-12-19T16:52:19.699Z,26.73
2022-12-19T16:54:47.748Z,24.08
2022-12-19T16:57:20.822Z,21.95
2022-12-19T16:59:49.623Z,20.92
2022-12-19T17:02:51.647Z,23.45
2022-12-19T17:05:23.569Z,21.25
2022-12-19T17:07:55.234Z,23.75
2022-12-19T17:10:29.042Z,19.95
2022-12-19T17:12:58.041Z,21.15
2022-12-19T17:15:29.603Z,19.60
2022-12-19T17:18:01.933Z,23.08
2022-12-19T17:20:33.400Z,20.80
2022-12-19T17:23:01.261Z,21.00
2022-12-19T17:25:29.574Z,25.55
2022-12-19T17:28:04.898Z,28.33
2022-12-19T17:30:44.406Z,26.85
2022-12-19T17:33:16.750Z,23.42
2022-12-19T17:35:45.619Z,27.30
2022-12-19T17:38:14.999Z,21.92
2022-12-19T17:40:43.514Z,21.92
2022-12-19T17:43:11.798Z,24.92
2022-12-19T17:45:40.024Z,21.10
2022-12-19T17:48:22.107Z,25.35
2022-12-19T17:50:49.936Z,23.67
2022-12-19T17:53:17.638Z,24.60
2022-12-19T17:55:45.464Z,23.40
2022-12-19T17:58:13.569Z,20.40
2022-12-19T18:00:42.284Z,19.70
2022-12-19T18:03:21.380Z,22.42
2022-12-19T18:05:50.052Z,24.90
2022-12-19T18:08:27.332Z,25.17
2022-12-19T18:10:56.491Z,21.80
2022-12-19T18:13:25.096Z,21.00
2022-12-19T18:15:55.525Z,21.75
2022-12-19T18:18:29.166Z,18.75
2022-12-19T18:20:58.068Z,21.42
2022-12-19T18:23:25.831Z,25.20
2022-12-19T18:25:59.458Z,21.05
2022-12-19T18:28:29.861Z,21.25
2022-12-19T18:31:01.302Z,22.25
2022-12-19T18:33:36.135Z,23.40
2022-12-19T18:36:04.227Z,19.65
2022-12-19T18:38:31.940Z,19.90
2022-12-19T18:40:59.862Z,21.60
2022-12-19T18:43:27.607Z,20.77
2022-12-19T18:45:55.843Z,22.30
2022-12-19T18:48:27.319Z,22.52
2022-12-19T18:51:00.552Z,23.95
2022-12-19T18:53:35.090Z,19.92
2022-12-19T18:56:05.063Z,21.33
2022-12-19T18:58:32.815Z,21.98
2022-12-19T19:01:01.769Z,18.17
2022-12-19T19:03:32.607Z,17.67
2022-12-19T19:06:03.638Z,20.70
2022-12-19T19:08:33.693Z,16.75
2022-12-19T19:11:23.438Z,18.08
2022-12-19T19:13:51.650Z,23.40
2022-12-19T19:16:22.170Z,19.83
2022-12-19T19:18:53.465Z,19.15
2022-12-19T19:21:25.096Z,17.48
2022-12-19T19:23:58.655Z,20.25
2022-12-19T19:26:27.034Z,15.68
2022-12-19T19:28:54.932Z,16.83
2022-12-19T19:31:26.612Z,18.02
2022-12-19T19:33:58.701Z,20.65
2022-12-19T19:36:32.785Z,19.95
2022-12-19T19:39:00.788Z,19.90
2022-12-19T19:41:30.000Z,17.98
2022-12-19T19:43:58.745Z,14.77
2022-12-19T19:46:27.181Z,17.15
2022-12-19T19:48:55.208Z,16.80
2022-12-19T19:51:23.021Z,16.48
2022-12-19T19:53:53.275Z,17.25
2022-12-19T19:56:21.057Z,18.45
2022-12-19T19:58:48.775Z,15.43
2022-12-19T20:01:21.101Z,17.65
2022-12-19T20:03:49.669Z,14.43
2022-12-19T20:06:19.131Z,18.63
2022-12-19T20:08:47.521Z,15.00
2022-12-19T20:11:17.239Z,15.00
2022-12-19T20:13:45.040Z,16.30
2022-12-19T20:16:16.953Z,15.23
2022-12-19T20:18:49.545Z,16.13
2022-12-19T20:21:18.333Z,14.52
2022-12-19T20:23:46.453Z,16.73
2022-12-19T20:26:17.364Z,14.63
2022-12-19T20:28:49.384Z,15.10
2022-12-19T20:31:18.544Z,11.73
2022-12-19T20:33:46.663Z,12.63
2022-12-19T20:36:15.340Z,17.85
2022-12-19T20:38:43.742Z,15.88
2022-12-19T20:41:11.804Z,13.38
2022-12-19T20:43:41.412Z,11.82
2022-12-19T20:46:11.764Z,15.23
2022-12-19T20:48:40.267Z,17.08
2022-12-19T20:51:09.211Z,14.48
2022-12-19T20:53:38.868Z,15.65
2022-12-19T20:56:09.260Z,12.20
2022-12-19T20:58:38.710Z,13.52
2022-12-19T21:01:11.515Z,12.40
2022-12-19T21:03:42.612Z,12.85
2022-12-19T21:06:13.547Z,11.27
2022-12-19T21:08:41.987Z,11.88
2022-12-19T21:11:10.592Z,15.38
2022-12-19T21:13:39.680Z,11.60
2022-12-19T21:16:10.965Z,13.00
2022-12-19T21:18:40.204Z,11.57
2022-12-19T21:21:09.681Z,13.18
2022-12-19T21:23:37.432Z,11.40
2022-12-19T21:26:06.104Z,12.20
2022-12-19T21:28:34.164Z,10.75
2022-12-19T21:31:03.853Z,13.80
2022-12-19T21:33:33.657Z,14.15
2022-12-19T21:36:07.413Z,14.05
2022-12-19T21:38:35.482Z,14.93
2022-12-19T21:41:04.469Z,13.50
2022-12-19T21:43:33.409Z,11.45
2022-12-19T21:46:09.741Z,16.75
2022-12-19T21:48:40.776Z,13.07
2022-12-19T21:51:09.629Z,10.15
2022-12-19T21:53:39.157Z,15.63
2022-12-19T21:56:08.712Z,12.75
2022-12-19T21:58:36.696Z,13.80
2022-12-19T22:01:08.336Z,11.75
2022-12-19T22:03:36.563Z,12.93
2022-12-19T22:06:08.769Z,12.00
2022-12-19T22:08:37.121Z,12.68
2022-12-19T22:11:04.881Z,12.70
2022-12-19T22:13:32.703Z,11.38
2022-12-19T22:16:01.618Z,12.27
2022-12-19T22:18:29.347Z,12.45
2022-12-19T22:20:59.056Z,13.07
2022-12-19T22:23:28.636Z,13.75
2022-12-19T22:26:04.995Z,14.93
2022-12-19T22:28:33.877Z,17.15
2022-12-19T22:31:02.103Z,14.15
2022-12-19T22:33:36.696Z,12.25
2022-12-19T22:36:09.415Z,12.32
2022-12-19T22:38:40.463Z,13.30
2022-12-19T22:41:08.746Z,15.80
2022-12-19T22:43:37.456Z,10.48
2022-12-19T22:46:11.753Z,12.85
2022-12-19T22:48:40.254Z,12.18
2022-12-19T22:51:08.855Z,14.23
2022-12-19T22:53:39.262Z,13.05
2022-12-19T22:56:09.515Z,14.48
2022-12-19T22:58:38.831Z,13.30
2022-12-19T23:01:14.364Z,11.63
2022-12-19T23:03:42.413Z,14.68
2022-12-19T23:06:10.823Z,9.50
2022-12-19T23:08:40.634Z,10.68
2022-12-19T23:11:11.856Z,13.77
2022-12-19T23:13:40.226Z,11.48
2022-12-19T23:16:08.531Z,12.65
2022-12-19T23:18:36.875Z,9.50
2022-12-19T23:21:09.379Z,12.75
2022-12-19T23:23:39.361Z,12.45
2022-12-19T23:26:15.619Z,12.13
2022-12-19T23:28:44.283Z,10.07
2022-12-19T23:31:13.698Z,10.52
2022-12-19T23:33:41.497Z,11.20
2022-12-19T23:36:11.413Z,11.82
2022-12-19T23:38:39.493Z,13.90
2022-12-19T23:41:10.946Z,12.98
2022-12-19T23:43:39.641Z,10.98
2022-12-19T23:46:08.288Z,13.00
2022-12-19T23:48:36.078Z,11.05
2022-12-19T23:51:05.983Z,8.75
2022-12-19T23:53:34.820Z,10.15
2022-12-19T23:56:05.543Z,10.38
2022-12-19T23:58:35.008Z,9.85
